Terminal Aerodrome Forecast
Issued by NWS Blacksburg, VA

Current Version | Previous Version | Text Only | Print | Product List | Glossary Off
Versions: 1 2 3 4 5 6 7 8 9 10 11 12 13 14 15 16 17

000
FTUS41 KRNK 151136
TAFBLF
TAF
KBLF 151136Z 1512/1612 24008G16KT 6SM -SHRA BR SCT013 OVC025
     FM151400 29011G21KT 6SM -SHRA SCT009 OVC015
     FM151600 29016G28KT 6SM -SHRASN OVC007
     FM152200 30012G20KT P6SM OVC015 PROB30 1522/1602 P6SM -SHSN
     FM160800 32007KT P6SM BKN020=

USA.gov is the U.S. government's official web portal to all federal, state and local government web resources and services.